Roscoe, Missouri
Current Conditions -  °F | °C
As of 9:15 AM on Wednesday 26 Nov 2014 (Local Time) from KGLY Reporting Station
Few Clouds Few Clouds  
Wind Chill: 31°   Ceiling: Unl
Heat Index: 37°   Visibility: 10mi
Dew Point: 36°   Wind: 9mph
Humidity: 93%   Direction: 230°SW
Pressure: 29.98"   Gusts: NA
Location:  37.97°N, 93.81°W
Report Text: KGLY 261515Z AUTO 23008KT 10SM FEW006 03/02 A2998 RMK AO2
Loading
Personal Weather Stations






























Interactive Weather Map New forecast layout! Learn more

10-Day Weather Forecast

Advertisements
Track Severe Weather on mobile